createdAt,value
2023-03-28T00:00:49.950Z,0.90
2023-03-28T00:03:19.329Z,1.07
2023-03-28T00:05:49.982Z,0.90
2023-03-28T00:08:18.155Z,0.80
2023-03-28T00:10:45.747Z,0.90
2023-03-28T00:13:14.009Z,0.93
2023-03-28T00:15:41.901Z,1.10
2023-03-28T00:18:11.833Z,1.00
2023-03-28T00:20:40.088Z,1.00
2023-03-28T00:23:08.231Z,1.00
2023-03-28T00:25:36.040Z,1.00
2023-03-28T00:28:03.408Z,1.10
2023-03-28T00:30:30.049Z,1.00
2023-03-28T00:32:57.527Z,0.90
2023-03-28T00:35:24.526Z,1.00
2023-03-28T00:37:53.716Z,1.00
2023-03-28T00:40:20.410Z,0.93
2023-03-28T00:42:47.052Z,1.00
2023-03-28T00:45:13.713Z,1.07
2023-03-28T00:47:49.501Z,0.90
2023-03-28T00:50:21.226Z,0.97
2023-03-28T00:52:58.651Z,1.00
2023-03-28T00:55:40.975Z,1.00
2023-03-28T00:58:15.524Z,0.83
2023-03-28T01:00:42.387Z,1.00
2023-03-28T01:03:13.521Z,1.00
2023-03-28T01:05:40.341Z,0.60
2023-03-28T01:08:18.962Z,0.90
2023-03-28T01:10:45.858Z,0.80
2023-03-28T01:13:14.777Z,0.80
2023-03-28T01:15:42.427Z,1.00
2023-03-28T01:18:11.435Z,1.10
2023-03-28T01:21:17.044Z,0.80
2023-03-28T01:24:14.615Z,1.03
2023-03-28T01:26:56.764Z,1.13
2023-03-28T01:29:23.352Z,1.03
2023-03-28T01:32:03.539Z,0.90
2023-03-28T01:34:33.409Z,1.07
2023-03-28T01:37:06.460Z,0.80
2023-03-28T01:39:48.631Z,0.93
2023-03-28T01:42:31.802Z,0.93
2023-03-28T01:45:19.243Z,1.10
2023-03-28T01:47:54.826Z,1.10
2023-03-28T01:50:36.164Z,1.00
2023-03-28T01:53:19.432Z,0.97
2023-03-28T01:55:54.317Z,1.00
2023-03-28T01:58:55.700Z,1.10
2023-03-28T02:01:36.817Z,1.00
2023-03-28T02:04:20.498Z,0.70
2023-03-28T02:06:49.852Z,1.07
2023-03-28T02:09:17.577Z,1.10
2023-03-28T02:11:44.550Z,1.00
2023-03-28T02:14:14.821Z,1.00
2023-03-28T02:16:42.357Z,0.97
2023-03-28T02:19:09.800Z,1.10
2023-03-28T02:21:50.649Z,1.10
2023-03-28T02:24:17.343Z,1.10
2023-03-28T02:26:44.287Z,1.07
2023-03-28T02:29:15.966Z,1.20
2023-03-28T02:31:42.756Z,1.10
2023-03-28T02:34:10.959Z,1.13
2023-03-28T02:36:52.345Z,1.20
2023-03-28T02:39:37.874Z,1.20
2023-03-28T02:42:19.841Z,1.07
2023-03-28T02:45:02.133Z,1.13
2023-03-28T02:47:42.607Z,1.20
2023-03-28T02:50:15.114Z,1.10
2023-03-28T02:52:56.739Z,1.00
2023-03-28T02:55:38.310Z,1.10
2023-03-28T02:58:21.544Z,1.30
2023-03-28T03:00:48.829Z,1.10
2023-03-28T03:03:16.855Z,1.23
2023-03-28T03:05:44.077Z,1.30
2023-03-28T03:08:11.669Z,1.10
2023-03-28T03:10:38.311Z,1.23
2023-03-28T03:13:04.992Z,1.10
2023-03-28T03:15:31.631Z,1.00
2023-03-28T03:17:58.759Z,1.20
2023-03-28T03:20:26.713Z,1.10
2023-03-28T03:22:54.675Z,1.20
2023-03-28T03:25:21.683Z,1.20
2023-03-28T03:27:48.328Z,1.30
2023-03-28T03:30:15.112Z,1.20
2023-03-28T03:32:44.066Z,1.20
2023-03-28T03:35:11.276Z,1.10
2023-03-28T03:37:37.934Z,1.40
2023-03-28T03:40:08.134Z,1.13
2023-03-28T03:42:34.781Z,1.10
2023-03-28T03:45:01.577Z,1.30
2023-03-28T03:47:28.242Z,1.20
2023-03-28T03:49:54.917Z,1.20
2023-03-28T03:52:21.771Z,1.13
2023-03-28T03:54:48.477Z,1.30
2023-03-28T03:57:15.576Z,1.17
2023-03-28T03:59:42.299Z,1.20
2023-03-28T04:02:08.988Z,1.23
2023-03-28T04:04:36.937Z,1.20
2023-03-28T04:07:03.553Z,1.00
2023-03-28T04:09:30.869Z,1.40
2023-03-28T04:11:57.760Z,1.30
2023-03-28T04:14:24.707Z,1.53
2023-03-28T04:16:51.380Z,1.40
2023-03-28T04:19:19.054Z,1.20
2023-03-28T04:21:48.218Z,1.20
2023-03-28T04:24:21.123Z,1.13
2023-03-28T04:26:55.792Z,1.20
2023-03-28T04:29:30.723Z,1.40
2023-03-28T04:31:58.725Z,1.20
2023-03-28T04:34:30.065Z,1.40
2023-03-28T04:37:01.831Z,1.20
2023-03-28T04:39:30.046Z,1.20
2023-03-28T04:42:01.887Z,1.20
2023-03-28T04:44:29.429Z,1.37
2023-03-28T04:46:56.532Z,1.17
2023-03-28T04:49:23.764Z,1.10
2023-03-28T04:51:50.761Z,1.17
2023-03-28T04:54:18.211Z,1.40
2023-03-28T04:56:48.103Z,1.17
2023-03-28T04:59:16.021Z,1.20
2023-03-28T05:01:48.879Z,1.30
2023-03-28T05:04:17.754Z,1.00
2023-03-28T05:06:46.358Z,1.27
2023-03-28T05:09:13.462Z,1.30
2023-03-28T05:11:40.344Z,1.30
2023-03-28T05:14:07.120Z,1.10
2023-03-28T05:16:33.766Z,1.50
2023-03-28T05:19:01.199Z,1.00
2023-03-28T05:21:27.976Z,1.40
2023-03-28T05:23:54.742Z,1.20
2023-03-28T05:26:21.378Z,1.30
2023-03-28T05:28:48.086Z,1.30
2023-03-28T05:31:17.120Z,1.50
2023-03-28T05:33:43.805Z,1.40
2023-03-28T05:36:10.633Z,1.30
2023-03-28T05:38:37.420Z,1.30
2023-03-28T05:41:04.402Z,1.30
2023-03-28T05:43:31.107Z,1.27
2023-03-28T05:45:57.837Z,1.30
2023-03-28T05:48:24.504Z,1.03
2023-03-28T05:50:51.342Z,1.40
2023-03-28T05:53:18.088Z,1.40
2023-03-28T05:55:44.765Z,1.30
2023-03-28T05:58:11.588Z,1.30
2023-03-28T06:00:39.436Z,1.37
2023-03-28T06:03:07.491Z,1.20
2023-03-28T06:05:34.695Z,1.27
2023-03-28T06:08:01.797Z,1.40
2023-03-28T06:10:28.750Z,1.13
2023-03-28T06:12:55.425Z,1.37
2023-03-28T06:15:22.716Z,1.30
2023-03-28T06:17:49.443Z,1.30
2023-03-28T06:20:16.249Z,1.60
2023-03-28T06:22:43.040Z,1.40
2023-03-28T06:25:10.039Z,1.30
2023-03-28T06:27:36.784Z,1.40
2023-03-28T06:30:04.839Z,1.30
2023-03-28T06:32:31.791Z,1.43
2023-03-28T06:34:58.590Z,1.50
2023-03-28T06:37:25.651Z,1.30
2023-03-28T06:39:53.126Z,1.50
2023-03-28T06:42:19.989Z,1.33
2023-03-28T06:44:46.629Z,1.20
2023-03-28T06:47:13.240Z,1.30
2023-03-28T06:49:39.957Z,1.50
2023-03-28T06:52:06.681Z,1.40
2023-03-28T06:54:33.323Z,1.30
2023-03-28T06:57:00.043Z,1.33
2023-03-28T06:59:26.784Z,1.40
2023-03-28T07:01:53.519Z,1.50
2023-03-28T07:04:20.615Z,1.33
2023-03-28T07:06:47.463Z,1.53
2023-03-28T07:09:14.103Z,1.30
2023-03-28T07:11:40.963Z,1.30
2023-03-28T07:14:07.599Z,1.83
2023-03-28T07:16:34.265Z,1.37
2023-03-28T07:19:01.045Z,1.50
2023-03-28T07:21:27.687Z,1.30
2023-03-28T07:23:54.333Z,1.40
2023-03-28T07:26:21.784Z,1.30
2023-03-28T07:28:49.229Z,1.40
2023-03-28T07:31:16.937Z,1.07
2023-03-28T07:33:43.768Z,1.37
2023-03-28T07:36:13.680Z,1.20
2023-03-28T07:38:40.561Z,1.50
2023-03-28T07:41:07.990Z,1.30
2023-03-28T07:43:34.909Z,1.50
2023-03-28T07:46:08.156Z,1.23
2023-03-28T07:48:36.189Z,1.10
2023-03-28T07:51:06.167Z,1.20
2023-03-28T07:53:33.474Z,1.40
2023-03-28T07:56:00.160Z,1.40
2023-03-28T07:58:26.980Z,1.30
2023-03-28T08:00:57.555Z,1.20
2023-03-28T08:03:28.357Z,1.40
2023-03-28T08:05:55.411Z,1.27
2023-03-28T08:08:26.477Z,1.20
2023-03-28T08:10:57.729Z,1.20
2023-03-28T08:13:26.040Z,1.17
2023-03-28T08:15:57.500Z,1.10
2023-03-28T08:18:27.828Z,1.20
2023-03-28T08:21:06.541Z,1.47
2023-03-28T08:23:33.401Z,1.20
2023-03-28T08:26:05.146Z,1.43
2023-03-28T08:28:35.939Z,1.50
2023-03-28T08:31:09.244Z,1.00
2023-03-28T08:33:36.219Z,1.43
2023-03-28T08:36:03.014Z,1.40
2023-03-28T08:38:29.787Z,1.33
2023-03-28T08:41:26.240Z,1.30
2023-03-28T08:44:18.037Z,1.40
2023-03-28T08:46:46.077Z,1.50
2023-03-28T08:49:16.599Z,1.27
2023-03-28T08:51:47.537Z,1.27
2023-03-28T08:54:37.163Z,1.10
2023-03-28T08:57:05.234Z,1.40
2023-03-28T08:59:39.891Z,1.43
2023-03-28T09:02:19.209Z,1.10
2023-03-28T09:04:46.619Z,1.23
2023-03-28T09:07:35.106Z,1.20
2023-03-28T09:10:20.154Z,1.40
2023-03-28T09:12:49.848Z,1.90
2023-03-28T09:15:23.305Z,1.30
2023-03-28T09:17:57.572Z,1.10
2023-03-28T09:20:32.220Z,0.93
2023-03-28T09:23:13.782Z,1.13
2023-03-28T09:25:42.136Z,1.10
2023-03-28T09:28:30.927Z,1.27
2023-03-28T09:30:59.806Z,1.40
2023-03-28T09:33:35.876Z,1.20
2023-03-28T09:36:03.525Z,1.30
2023-03-28T09:38:34.127Z,1.60
2023-03-28T09:41:05.445Z,1.20
2023-03-28T09:43:37.072Z,1.03
2023-03-28T09:46:09.479Z,1.23
2023-03-28T09:48:37.343Z,1.03
2023-03-28T09:51:06.020Z,1.00
2023-03-28T09:53:39.883Z,1.13
2023-03-28T09:56:23.611Z,0.87
2023-03-28T09:58:55.739Z,1.00
2023-03-28T10:01:27.362Z,0.70
2023-03-28T10:03:55.960Z,0.90
2023-03-28T10:06:31.635Z,1.00
2023-03-28T10:09:27.059Z,0.90
2023-03-28T10:13:20.525Z,0.80
2023-03-28T10:15:50.742Z,1.10
2023-03-28T10:18:21.847Z,1.00
2023-03-28T10:20:50.975Z,1.23
2023-03-28T10:23:17.621Z,1.17
2023-03-28T10:25:46.190Z,0.80
2023-03-28T10:28:21.708Z,1.00
2023-03-28T10:30:53.873Z,1.07
2023-03-28T10:33:25.363Z,1.00
2023-03-28T10:36:32.273Z,1.20
2023-03-28T10:39:00.155Z,1.20
2023-03-28T10:41:28.849Z,1.33
2023-03-28T10:43:56.862Z,1.53
2023-03-28T10:46:35.515Z,1.33
2023-03-28T10:49:12.377Z,1.03
2023-03-28T10:51:41.130Z,1.17
2023-03-28T10:54:26.579Z,1.10
2023-03-28T10:56:57.669Z,1.40
2023-03-28T10:59:47.919Z,1.20
2023-03-28T11:02:23.044Z,1.20
2023-03-28T11:04:58.769Z,1.30
2023-03-28T11:07:51.368Z,1.10
2023-03-28T11:10:25.236Z,1.40
2023-03-28T11:13:04.185Z,1.30
2023-03-28T11:15:41.982Z,1.10
2023-03-28T11:18:17.522Z,1.10
2023-03-28T11:20:54.275Z,1.13
2023-03-28T11:23:50.190Z,1.20
2023-03-28T11:27:15.540Z,1.20
2023-03-28T11:29:53.652Z,1.30
2023-03-28T11:32:27.722Z,1.10
2023-03-28T11:35:14.273Z,1.33
2023-03-28T11:38:10.279Z,1.23
2023-03-28T11:40:46.502Z,1.30
2023-03-28T11:43:14.298Z,1.30
2023-03-28T11:45:52.088Z,1.40
2023-03-28T11:48:42.089Z,1.30
2023-03-28T11:51:23.368Z,1.10
2023-03-28T11:54:07.420Z,1.00
2023-03-28T11:56:51.987Z,1.20
2023-03-28T11:59:40.490Z,0.97
2023-03-28T12:02:14.523Z,1.30
2023-03-28T12:04:57.329Z,1.50
2023-03-28T12:07:46.689Z,1.10
2023-03-28T12:10:25.874Z,1.23
2023-03-28T12:13:11.543Z,1.40
2023-03-28T12:15:46.568Z,1.10
2023-03-28T12:18:25.376Z,1.20
2023-03-28T12:21:13.748Z,1.10
2023-03-28T12:24:11.266Z,1.33
2023-03-28T12:26:55.911Z,1.37
2023-03-28T12:29:41.701Z,1.20
2023-03-28T12:32:29.617Z,1.20
2023-03-28T12:35:12.099Z,1.20
2023-03-28T12:37:54.215Z,1.10
2023-03-28T12:40:41.731Z,1.43
2023-03-28T12:43:10.660Z,1.27
2023-03-28T12:45:42.333Z,0.80
2023-03-28T12:48:17.005Z,1.20
2023-03-28T12:50:55.496Z,1.00
2023-03-28T12:53:24.277Z,1.00
2023-03-28T12:55:55.365Z,1.33
2023-03-28T12:58:30.564Z,1.10
2023-03-28T13:01:09.180Z,1.40
2023-03-28T13:04:05.296Z,1.17
2023-03-28T13:07:03.160Z,1.03
2023-03-28T13:09:47.438Z,1.10
2023-03-28T13:12:30.467Z,1.10
2023-03-28T13:15:03.062Z,1.00
2023-03-28T13:17:32.237Z,1.20
2023-03-28T13:20:07.399Z,1.23
2023-03-28T13:22:44.260Z,1.00
2023-03-28T13:25:29.635Z,1.13
2023-03-28T13:28:00.886Z,1.07
2023-03-28T13:30:30.521Z,1.13
2023-03-28T13:32:59.934Z,1.03
2023-03-28T13:36:10.586Z,1.30
2023-03-28T13:39:10.840Z,1.00
2023-03-28T13:41:46.587Z,1.40
2023-03-28T13:44:17.336Z,0.93
2023-03-28T13:46:46.331Z,1.10
2023-03-28T13:49:37.245Z,1.20
2023-03-28T13:52:22.374Z,1.10
2023-03-28T13:54:54.407Z,1.07
2023-03-28T13:57:29.274Z,1.03
2023-03-28T14:00:00.747Z,1.20
2023-03-28T14:02:36.742Z,1.10
2023-03-28T14:05:22.513Z,1.60
2023-03-28T14:07:50.869Z,1.50
2023-03-28T14:10:32.700Z,1.10
2023-03-28T14:13:11.026Z,1.83
2023-03-28T14:15:39.780Z,1.00
2023-03-28T14:18:17.997Z,1.47
2023-03-28T14:20:46.549Z,1.20
2023-03-28T14:23:54.598Z,1.10
2023-03-28T14:26:23.488Z,1.10
2023-03-28T14:28:51.941Z,1.10
2023-03-28T14:31:34.659Z,1.00
2023-03-28T14:34:44.987Z,0.90
2023-03-28T14:37:17.676Z,1.37
2023-03-28T14:39:45.471Z,1.07
2023-03-28T14:42:19.943Z,1.10
2023-03-28T14:44:51.018Z,1.10
2023-03-28T14:47:29.778Z,1.10
2023-03-28T14:49:56.562Z,1.23
2023-03-28T14:52:29.844Z,1.00
2023-03-28T14:54:58.083Z,1.20
2023-03-28T14:57:25.629Z,1.00
2023-03-28T14:59:52.924Z,1.03
2023-03-28T15:02:35.363Z,1.00
2023-03-28T15:05:08.611Z,0.93
2023-03-28T15:07:36.746Z,0.90
2023-03-28T15:10:10.805Z,1.20
2023-03-28T15:13:23.901Z,1.00
2023-03-28T15:15:50.999Z,1.00
2023-03-28T15:18:25.163Z,0.90
2023-03-28T15:20:55.466Z,0.90
2023-03-28T15:23:53.572Z,1.07
2023-03-28T15:26:28.568Z,1.07
2023-03-28T15:28:56.628Z,1.00
2023-03-28T15:31:23.961Z,1.00
2023-03-28T15:33:52.197Z,0.97
2023-03-28T15:36:23.610Z,1.10
2023-03-28T15:39:01.188Z,1.20
2023-03-28T15:41:42.547Z,1.07
2023-03-28T15:44:30.104Z,0.90
2023-03-28T15:47:10.828Z,0.93
2023-03-28T15:49:38.185Z,0.93
2023-03-28T15:52:09.396Z,0.90
2023-03-28T15:54:42.148Z,1.00
2023-03-28T15:57:12.284Z,0.90
2023-03-28T15:59:43.032Z,1.00
2023-03-28T16:02:33.490Z,1.10
2023-03-28T16:05:10.104Z,1.10
2023-03-28T16:07:46.180Z,1.20
2023-03-28T16:10:14.895Z,1.20
2023-03-28T16:12:41.685Z,1.00
2023-03-28T16:15:09.018Z,1.10
2023-03-28T16:17:36.613Z,1.10
2023-03-28T16:20:19.606Z,1.00
2023-03-28T16:22:46.416Z,1.17
2023-03-28T16:25:13.517Z,1.00
2023-03-28T16:27:40.626Z,1.07
2023-03-28T16:30:27.507Z,1.13
2023-03-28T16:32:54.368Z,1.10
2023-03-28T16:35:22.566Z,1.30
2023-03-28T16:37:49.272Z,1.30
2023-03-28T16:40:16.033Z,1.50
2023-03-28T16:42:42.704Z,1.07
2023-03-28T16:45:12.861Z,1.13
2023-03-28T16:47:39.966Z,1.10
2023-03-28T16:50:08.642Z,1.20
2023-03-28T16:52:40.170Z,1.37
2023-03-28T16:55:11.800Z,0.93
2023-03-28T16:57:38.455Z,1.20
2023-03-28T17:00:07.250Z,1.20
2023-03-28T17:02:34.142Z,1.00
2023-03-28T17:05:00.999Z,1.10
2023-03-28T17:07:27.902Z,1.10
2023-03-28T17:09:54.585Z,1.20
2023-03-28T17:12:22.665Z,1.10
2023-03-28T17:14:49.319Z,1.23
2023-03-28T17:17:16.253Z,1.30
2023-03-28T17:19:43.200Z,1.20
2023-03-28T17:22:09.878Z,1.20
2023-03-28T17:24:36.576Z,1.20
2023-03-28T17:27:03.556Z,1.30
2023-03-28T17:29:30.733Z,1.20
2023-03-28T17:31:57.556Z,1.10
2023-03-28T17:34:24.469Z,1.40
2023-03-28T17:36:54.378Z,1.53
2023-03-28T17:39:22.083Z,1.40
2023-03-28T17:41:48.847Z,1.20
2023-03-28T17:44:15.487Z,1.23
2023-03-28T17:46:42.718Z,1.30
2023-03-28T17:49:09.617Z,1.10
2023-03-28T17:51:36.837Z,1.30
2023-03-28T17:54:08.165Z,1.50
2023-03-28T17:56:34.847Z,1.30
2023-03-28T17:59:01.597Z,1.30
2023-03-28T18:01:28.290Z,1.30
2023-03-28T18:03:55.045Z,1.50
2023-03-28T18:06:22.119Z,1.33
2023-03-28T18:08:48.767Z,1.30
2023-03-28T18:11:17.869Z,1.40
2023-03-28T18:13:44.943Z,1.40
2023-03-28T18:16:13.613Z,1.30
2023-03-28T18:18:41.753Z,1.43
2023-03-28T18:21:09.277Z,1.50
2023-03-28T18:23:37.393Z,1.40
2023-03-28T18:26:05.650Z,1.63
2023-03-28T18:28:33.917Z,1.53
2023-03-28T18:31:14.828Z,1.33
2023-03-28T18:33:44.762Z,1.67
2023-03-28T18:36:12.628Z,1.40
2023-03-28T18:38:42.090Z,1.40
2023-03-28T18:41:09.516Z,1.90
2023-03-28T18:43:41.424Z,1.50
2023-03-28T18:46:09.168Z,1.53
2023-03-28T18:48:36.325Z,1.80
2023-03-28T18:51:04.072Z,1.80
2023-03-28T18:53:30.708Z,1.60
2023-03-28T18:55:57.752Z,1.37
2023-03-28T18:58:26.184Z,1.50
2023-03-28T19:00:58.579Z,1.50
2023-03-28T19:03:26.928Z,1.63
2023-03-28T19:05:58.178Z,1.43
2023-03-28T19:08:28.025Z,1.50
2023-03-28T19:10:56.341Z,1.80
2023-03-28T19:13:23.828Z,1.77
2023-03-28T19:16:00.971Z,1.60
2023-03-28T19:18:28.115Z,1.50
2023-03-28T19:20:56.372Z,1.67
2023-03-28T19:23:24.535Z,1.40
2023-03-28T19:25:51.526Z,1.50
2023-03-28T19:28:18.838Z,1.70
2023-03-28T19:30:46.268Z,1.80
2023-03-28T19:33:12.977Z,1.60
2023-03-28T19:35:41.083Z,1.80
2023-03-28T19:38:07.938Z,1.63
2023-03-28T19:40:34.624Z,1.53
2023-03-28T19:43:01.469Z,1.53
2023-03-28T19:45:29.665Z,1.67
2023-03-28T19:47:57.537Z,1.40
2023-03-28T19:50:25.512Z,1.57
2023-03-28T19:52:53.834Z,1.53
2023-03-28T19:55:22.573Z,1.77
2023-03-28T19:57:50.774Z,1.80
2023-03-28T20:00:22.066Z,1.80
2023-03-28T20:02:50.871Z,1.50
2023-03-28T20:05:19.723Z,1.80
2023-03-28T20:07:47.736Z,1.80
2023-03-28T20:10:16.092Z,1.73
2023-03-28T20:12:44.656Z,2.00
2023-03-28T20:15:13.193Z,1.80
2023-03-28T20:17:41.028Z,1.63
2023-03-28T20:20:10.850Z,1.50
2023-03-28T20:22:38.500Z,1.80
2023-03-28T20:25:07.240Z,1.70
2023-03-28T20:27:36.832Z,1.80
2023-03-28T20:30:16.331Z,1.90
2023-03-28T20:32:44.714Z,1.73
2023-03-28T20:35:12.309Z,1.50
2023-03-28T20:37:39.847Z,1.63
2023-03-28T20:40:13.417Z,1.60
2023-03-28T20:42:41.471Z,1.60
2023-03-28T20:45:14.781Z,1.87
2023-03-28T20:47:44.096Z,1.90
2023-03-28T20:50:12.827Z,1.73
2023-03-28T20:52:42.152Z,2.00
2023-03-28T20:55:11.489Z,2.50
2023-03-28T20:57:42.738Z,2.30
2023-03-28T21:00:14.536Z,2.23
2023-03-28T21:02:43.543Z,2.43
2023-03-28T21:05:12.945Z,2.43
2023-03-28T21:07:42.042Z,2.30
2023-03-28T21:10:11.590Z,2.53
2023-03-28T21:12:40.382Z,2.50
2023-03-28T21:15:08.412Z,2.33
2023-03-28T21:17:37.124Z,2.20
2023-03-28T21:20:13.583Z,2.13
2023-03-28T21:22:41.587Z,2.00
2023-03-28T21:25:10.958Z,2.23
2023-03-28T21:27:39.158Z,2.10
2023-03-28T21:30:08.615Z,2.00
2023-03-28T21:32:35.904Z,1.90
2023-03-28T21:35:04.384Z,2.00
2023-03-28T21:37:31.861Z,2.07
2023-03-28T21:39:58.466Z,2.00
2023-03-28T21:42:25.410Z,2.00
2023-03-28T21:44:52.149Z,1.80
2023-03-28T21:47:18.928Z,2.00
2023-03-28T21:49:45.984Z,1.97
2023-03-28T21:52:12.999Z,1.70
2023-03-28T21:54:39.737Z,1.80
2023-03-28T21:57:06.427Z,1.73
2023-03-28T21:59:33.472Z,1.80
2023-03-28T22:02:00.497Z,1.70
2023-03-28T22:04:28.324Z,1.90
2023-03-28T22:06:55.672Z,1.80
2023-03-28T22:09:22.322Z,1.77
2023-03-28T22:11:49.327Z,1.57
2023-03-28T22:14:15.949Z,1.70
2023-03-28T22:16:42.605Z,1.70
2023-03-28T22:19:09.802Z,1.60
2023-03-28T22:21:36.993Z,1.77
2023-03-28T22:24:06.187Z,1.90
2023-03-28T22:26:33.004Z,1.77
2023-03-28T22:28:59.809Z,1.77
2023-03-28T22:31:27.142Z,1.77
2023-03-28T22:33:53.933Z,1.73
2023-03-28T22:36:20.713Z,1.83
2023-03-28T22:38:47.726Z,1.90
2023-03-28T22:41:14.479Z,1.97
2023-03-28T22:43:42.632Z,2.00
2023-03-28T22:46:12.560Z,2.00
2023-03-28T22:48:39.469Z,2.20
2023-03-28T22:51:11.707Z,2.67
2023-03-28T22:53:39.545Z,1.80
2023-03-28T22:56:06.716Z,2.00
2023-03-28T22:58:33.938Z,1.97
2023-03-28T23:01:00.812Z,1.87
2023-03-28T23:03:28.137Z,2.30
2023-03-28T23:05:55.073Z,1.70
2023-03-28T23:08:22.241Z,1.70
2023-03-28T23:10:48.950Z,1.50
2023-03-28T23:13:16.539Z,1.57
2023-03-28T23:15:43.843Z,1.20
2023-03-28T23:18:10.895Z,1.30
2023-03-28T23:20:38.313Z,1.40
2023-03-28T23:23:05.019Z,1.33
2023-03-28T23:25:32.813Z,1.30
2023-03-28T23:27:59.447Z,1.30
2023-03-28T23:30:26.146Z,1.20
2023-03-28T23:32:52.823Z,1.10
2023-03-28T23:35:19.649Z,1.10
2023-03-28T23:37:46.616Z,1.03
2023-03-28T23:40:16.661Z,1.10
2023-03-28T23:42:44.461Z,1.00
2023-03-28T23:45:13.727Z,1.03
2023-03-28T23:47:40.596Z,1.00
2023-03-28T23:50:09.306Z,1.00
2023-03-28T23:52:36.708Z,1.20
2023-03-28T23:55:03.677Z,1.10
2023-03-28T23:57:30.378Z,1.37
2023-03-28T23:59:57.198Z,0.90
